Time;durP1;ratioP1;P1;durP2;ratioP2;P2;SDS_P1;SDS_P2;PMS_P1;PMS_P2;Temp;Humidity;BMP_temperature;BMP_pressure;BME280_temperature;BME280_humidity;BME280_pressure;Samples;Min_cycle;Max_cycle;Signal;HPM_P1;HPM_P2
2021/04/08 00:01:59;;;;;;;10.90;2.15;;;1.60;99.90;;;;;;12370959;28;20140;-43
2021/04/08 00:08:01;;;;;;;10.02;1.95;;;1.60;99.90;;;;;;12370512;28;20137;-42
2021/04/08 00:14:03;;;;;;;11.02;2.22;;;1.70;99.90;;;;;;12367041;28;20141;-45
2021/04/08 00:20:22;;;;;;;14.50;2.05;;;1.60;99.90;;;;;;12370338;28;20156;-43
2021/04/08 00:26:23;;;;;;;14.95;2.60;;;1.60;99.90;;;;;;12371744;28;20053;-42
2021/04/08 00:32:24;;;;;;;16.30;3.10;;;1.40;99.90;;;;;;12374894;28;20049;-44
2021/04/08 00:38:26;;;;;;;13.40;2.00;;;1.30;99.90;;;;;;12371226;28;20058;-43
2021/04/08 00:44:27;;;;;;;12.52;1.73;;;1.20;99.90;;;;;;12371406;28;20107;-43
2021/04/08 00:50:28;;;;;;;10.75;1.73;;;1.30;99.90;;;;;;12376275;28;20045;-43
2021/04/08 00:56:30;;;;;;;20.98;3.38;;;1.20;99.90;;;;;;12370433;28;20538;-43
2021/04/08 01:02:32;;;;;;;14.52;2.10;;;1.20;99.90;;;;;;12371025;28;20096;-43
2021/04/08 01:08:34;;;;;;;8.23;1.60;;;1.20;99.90;;;;;;12368656;28;20046;-43
2021/04/08 01:14:36;;;;;;;12.20;1.83;;;1.20;99.90;;;;;;12368964;28;20058;-43
2021/04/08 01:20:43;;;;;;;9.75;2.13;;;1.10;99.90;;;;;;12370098;28;20050;-42
2021/04/08 01:27:06;;;;;;;11.48;1.70;;;1.20;99.90;;;;;;12366054;28;20545;-43
2021/04/08 01:33:38;;;;;;;9.55;1.80;;;1.30;99.90;;;;;;12370999;28;20442;-43
2021/04/08 01:39:43;;;;;;;11.38;2.55;;;1.10;99.90;;;;;;12364260;28;20487;-42
2021/04/08 01:45:48;;;;;;;8.82;2.30;;;1.30;99.90;;;;;;12365479;28;20050;-43
2021/04/08 01:51:51;;;;;;;9.73;2.10;;;1.10;99.90;;;;;;12371520;28;20042;-43
2021/04/08 01:57:54;;;;;;;9.32;3.08;;;1.10;99.90;;;;;;12372713;28;20104;-43
2021/04/08 02:03:57;;;;;;;14.02;3.03;;;1.10;99.90;;;;;;12366392;28;20688;-43
2021/04/08 02:09:58;;;;;;;13.23;1.90;;;1.00;99.90;;;;;;12369816;28;20548;-43
2021/04/08 02:16:01;;;;;;;14.38;2.30;;;1.00;99.90;;;;;;12361618;28;20437;-43
2021/04/08 02:22:03;;;;;;;13.55;2.65;;;1.00;99.90;;;;;;12360203;28;20093;-43
2021/04/08 02:28:07;;;;;;;10.80;2.60;;;1.20;99.90;;;;;;12369303;28;20046;-43
2021/04/08 02:34:10;;;;;;;11.20;2.42;;;1.20;99.90;;;;;;12355965;28;20049;-43
2021/04/08 02:40:18;;;;;;;13.25;2.60;;;1.10;99.90;;;;;;12361088;28;20049;-43
2021/04/08 02:46:19;;;;;;;14.07;2.40;;;1.30;99.90;;;;;;12367393;28;20043;-42
2021/04/08 02:52:24;;;;;;;13.48;2.72;;;1.30;99.90;;;;;;12361894;28;20154;-43
2021/04/08 02:58:29;;;;;;;18.30;2.53;;;1.20;99.90;;;;;;12367605;28;20054;-43
2021/04/08 03:04:34;;;;;;;17.90;2.88;;;1.40;99.90;;;;;;12363595;28;20140;-44
2021/04/08 03:10:41;;;;;;;11.35;2.20;;;1.40;99.90;;;;;;12370406;28;20105;-42
2021/04/08 03:16:48;;;;;;;9.07;2.95;;;1.40;99.90;;;;;;12366860;28;20054;-43
2021/04/08 03:22:52;;;;;;;14.63;3.97;;;1.40;99.90;;;;;;12360034;28;20132;-44
2021/04/08 03:28:55;;;;;;;12.98;3.40;;;1.30;99.90;;;;;;12381376;28;20053;-43
2021/04/08 03:34:57;;;;;;;11.38;3.25;;;1.20;99.90;;;;;;12377733;28;20480;-43
2021/04/08 03:40:59;;;;;;;13.93;2.95;;;1.30;99.90;;;;;;12381763;28;20103;-45
2021/04/08 03:47:01;;;;;;;8.60;2.60;;;1.10;99.90;;;;;;12381562;28;20173;-42
2021/04/08 03:53:04;;;;;;;11.40;2.72;;;1.10;99.90;;;;;;12376562;28;20103;-43
2021/04/08 03:59:07;;;;;;;13.48;2.53;;;1.20;99.90;;;;;;12375103;28;20471;-43
2021/04/08 04:05:10;;;;;;;12.43;2.60;;;1.20;99.90;;;;;;12377229;28;20418;-43
2021/04/08 04:11:12;;;;;;;13.32;3.00;;;1.30;99.90;;;;;;12378416;28;20046;-43
2021/04/08 04:17:29;;;;;;;11.18;2.40;;;1.30;99.90;;;;;;12381624;28;20088;-43
2021/04/08 04:23:30;;;;;;;11.95;2.92;;;1.30;99.90;;;;;;12379686;28;20042;-43
2021/04/08 04:29:31;;;;;;;13.02;2.47;;;1.30;99.90;;;;;;12375965;28;20054;-43
2021/04/08 04:35:33;;;;;;;11.23;2.42;;;1.30;99.90;;;;;;12374197;28;20088;-45
2021/04/08 04:41:34;;;;;;;14.38;2.80;;;1.20;99.90;;;;;;12364206;28;20060;-43
2021/04/08 04:47:39;;;;;;;10.15;2.63;;;1.10;99.90;;;;;;12357180;28;20051;-42
2021/04/08 04:53:41;;;;;;;9.82;2.30;;;1.30;99.90;;;;;;12364988;28;20149;-43
2021/04/08 04:59:42;;;;;;;10.50;2.45;;;1.30;99.90;;;;;;12362040;28;20070;-44
2021/04/08 05:05:44;;;;;;;12.27;2.85;;;1.20;99.90;;;;;;12370381;28;20046;-43
2021/04/08 05:11:45;;;;;;;7.82;1.95;;;1.30;99.90;;;;;;12354992;28;20115;-43
2021/04/08 05:17:46;;;;;;;7.90;2.40;;;1.20;99.90;;;;;;12365708;28;20455;-43
2021/04/08 05:23:48;;;;;;;13.55;2.65;;;1.10;99.90;;;;;;12366744;28;20046;-43
2021/04/08 05:29:49;;;;;;;8.30;2.30;;;1.00;99.90;;;;;;12369184;28;20049;-44
2021/04/08 05:35:51;;;;;;;10.40;2.70;;;1.10;99.90;;;;;;12369638;28;20070;-43
2021/04/08 05:41:52;;;;;;;8.52;2.78;;;1.30;99.90;;;;;;12361501;28;20058;-43
2021/04/08 05:47:54;;;;;;;9.98;2.72;;;1.40;99.90;;;;;;12364092;28;20057;-44
2021/04/08 05:53:56;;;;;;;7.90;2.92;;;1.30;99.90;;;;;;12357574;28;20178;-43
2021/04/08 05:59:57;;;;;;;8.07;3.67;;;1.30;99.90;;;;;;12362192;28;20611;-44
2021/04/08 06:06:03;;;;;;;13.57;3.47;;;1.30;99.90;;;;;;12364017;28;20821;-43
2021/04/08 06:12:05;;;;;;;9.75;3.63;;;1.60;99.90;;;;;;12364310;28;20840;-43
2021/04/08 06:18:07;;;;;;;13.55;3.72;;;1.70;99.90;;;;;;12364771;28;20168;-44
2021/04/08 06:24:09;;;;;;;12.48;3.63;;;1.50;99.90;;;;;;12361575;28;20111;-42
2021/04/08 06:30:11;;;;;;;13.32;3.83;;;1.60;99.90;;;;;;12371756;28;20050;-44
2021/04/08 06:36:12;;;;;;;10.35;3.72;;;1.80;99.90;;;;;;12365636;28;20140;-43
2021/04/08 06:42:17;;;;;;;17.17;3.95;;;1.80;99.90;;;;;;12363704;28;20041;-43
2021/04/08 06:48:23;;;;;;;10.77;4.13;;;2.00;99.90;;;;;;12360447;28;20475;-44
2021/04/08 06:54:26;;;;;;;14.77;3.92;;;2.30;99.90;;;;;;12362244;28;20145;-43
2021/04/08 07:00:28;;;;;;;14.40;4.47;;;2.40;99.90;;;;;;12361005;28;20048;-42
2021/04/08 07:06:29;;;;;;;11.50;3.58;;;2.60;99.90;;;;;;12356637;28;20088;-43
2021/04/08 07:12:31;;;;;;;13.52;4.30;;;2.70;99.90;;;;;;12359617;28;20169;-45
2021/04/08 07:18:33;;;;;;;10.93;3.10;;;2.70;99.90;;;;;;12356542;28;20047;-45
2021/04/08 07:24:49;;;;;;;16.30;4.57;;;2.70;99.90;;;;;;12359980;28;20050;-44
2021/04/08 07:30:50;;;;;;;11.45;3.60;;;2.90;99.90;;;;;;12363275;28;20084;-48
2021/04/08 07:36:54;;;;;;;8.57;3.45;;;3.20;99.90;;;;;;12363255;28;20414;-43
2021/04/08 07:42:55;;;;;;;11.63;3.47;;;3.50;99.90;;;;;;12356926;28;20050;-44
2021/04/08 07:48:57;;;;;;;14.27;3.70;;;3.50;99.90;;;;;;12356523;28;20093;-44
2021/04/08 07:55:00;;;;;;;12.60;3.70;;;3.90;99.90;;;;;;12359155;28;20703;-43
2021/04/08 08:01:01;;;;;;;9.63;3.28;;;4.00;99.90;;;;;;12359603;28;20050;-43
2021/04/08 08:07:03;;;;;;;15.70;3.20;;;3.90;99.90;;;;;;12358774;28;20111;-43
2021/04/08 08:13:22;;;;;;;6.45;2.72;;;4.10;99.90;;;;;;12366322;28;20053;-43
2021/04/08 08:19:24;;;;;;;9.50;2.80;;;4.40;99.90;;;;;;12372129;28;20461;-43
2021/04/08 08:25:28;;;;;;;10.38;2.88;;;4.30;99.90;;;;;;12364525;28;20053;-43
2021/04/08 08:31:34;;;;;;;9.45;2.70;;;4.60;99.90;;;;;;12371950;28;20621;-45
2021/04/08 08:37:45;;;;;;;13.40;2.85;;;4.70;99.90;;;;;;12366879;28;20058;-43
2021/04/08 08:43:56;;;;;;;11.77;2.58;;;4.70;99.90;;;;;;12364112;28;20054;-43
2021/04/08 08:50:08;;;;;;;6.60;2.80;;;4.90;99.90;;;;;;12367453;28;20720;-43
2021/04/08 08:56:09;;;;;;;8.52;2.50;;;5.30;99.90;;;;;;12367969;28;20050;-43
2021/04/08 09:02:11;;;;;;;8.50;2.10;;;5.40;99.90;;;;;;12370253;28;20058;-42
2021/04/08 09:08:17;;;;;;;5.05;1.83;;;5.60;99.90;;;;;;12366996;28;20152;-43
2021/04/08 09:14:28;;;;;;;6.00;1.80;;;5.60;99.90;;;;;;12368968;28;20065;-43
2021/04/08 09:20:30;;;;;;;6.30;1.92;;;5.60;99.90;;;;;;12367586;28;20695;-43
2021/04/08 09:26:37;;;;;;;7.80;2.10;;;5.70;99.90;;;;;;12364764;28;20089;-43
2021/04/08 09:32:47;;;;;;;8.23;2.38;;;5.70;99.90;;;;;;12364135;28;20084;-44
2021/04/08 09:38:51;;;;;;;7.57;2.30;;;5.70;99.90;;;;;;12366342;28;20054;-43
2021/04/08 09:44:53;;;;;;;8.93;2.65;;;5.50;99.90;;;;;;12357581;28;20325;-43
2021/04/08 09:51:00;;;;;;;8.43;2.50;;;5.70;99.90;;;;;;12368251;28;20046;-44
2021/04/08 09:57:02;;;;;;;7.35;2.35;;;6.00;99.90;;;;;;12363964;28;20063;-43
2021/04/08 10:03:06;;;;;;;6.95;2.22;;;5.80;99.90;;;;;;12364455;28;20057;-43
2021/04/08 10:09:09;;;;;;;10.13;2.45;;;5.60;99.90;;;;;;12363118;28;20535;-43
2021/04/08 10:15:16;;;;;;;7.43;2.28;;;5.30;99.90;;;;;;12364319;28;20062;-43
2021/04/08 10:21:19;;;;;;;8.15;2.10;;;5.20;99.90;;;;;;12368093;28;20050;-44
2021/04/08 10:27:26;;;;;;;8.10;2.17;;;5.10;99.90;;;;;;12370467;28;20057;-43
2021/04/08 10:33:33;;;;;;;8.38;2.20;;;5.70;99.90;;;;;;12361933;28;20058;-43
2021/04/08 10:39:36;;;;;;;6.07;1.52;;;5.90;99.90;;;;;;12354864;28;20053;-45
2021/04/08 10:45:48;;;;;;;5.97;1.80;;;5.70;99.90;;;;;;12364089;28;20045;-43
2021/04/08 10:51:50;;;;;;;6.70;2.00;;;5.70;99.90;;;;;;12362038;28;20056;-43
2021/04/08 10:57:52;;;;;;;6.75;1.48;;;5.60;99.90;;;;;;12358375;28;20108;-44
2021/04/08 11:04:06;;;;;;;4.60;1.40;;;5.50;99.90;;;;;;12367973;28;20046;-43
2021/04/08 11:10:12;;;;;;;5.78;1.45;;;5.60;99.90;;;;;;12365654;28;20093;-43
2021/04/08 11:16:14;;;;;;;4.80;1.00;;;5.50;99.90;;;;;;12360828;28;20054;-42
2021/04/08 11:22:18;;;;;;;7.00;1.33;;;5.60;99.90;;;;;;12360745;28;20104;-43
2021/04/08 11:28:22;;;;;;;8.10;1.47;;;5.50;99.90;;;;;;12357116;28;20555;-44
2021/04/08 11:34:23;;;;;;;6.30;1.30;;;5.30;99.90;;;;;;12362284;28;20553;-43
2021/04/08 11:40:24;;;;;;;8.07;1.67;;;5.30;99.90;;;;;;12365208;28;20605;-43
2021/04/08 11:46:42;;;;;;;7.97;1.27;;;5.40;99.90;;;;;;12368853;28;20367;-44
2021/04/08 11:53:06;;;;;;;6.72;1.52;;;5.30;99.90;;;;;;12365212;28;20054;-43
2021/04/08 11:59:10;;;;;;;6.57;1.37;;;5.30;99.90;;;;;;12371235;28;20053;-43
2021/04/08 12:05:12;;;;;;;7.05;1.25;;;5.30;99.90;;;;;;12377996;28;20069;-45
2021/04/08 12:11:15;;;;;;;5.18;1.50;;;5.40;99.90;;;;;;12370183;28;20513;-43
2021/04/08 12:17:16;;;;;;;4.85;1.45;;;5.60;99.90;;;;;;12370663;28;20081;-42
2021/04/08 12:23:23;;;;;;;4.90;1.48;;;5.60;99.90;;;;;;12372705;28;20069;-43
2021/04/08 12:29:25;;;;;;;5.70;2.00;;;6.00;99.90;;;;;;12370540;28;20719;-42
2021/04/08 12:35:26;;;;;;;8.73;1.75;;;6.30;99.90;;;;;;12367675;28;20046;-44
2021/04/08 12:41:27;;;;;;;4.95;1.52;;;5.90;99.90;;;;;;12363235;28;20562;-43
2021/04/08 12:47:29;;;;;;;5.93;1.50;;;5.80;99.90;;;;;;12356555;28;20105;-42
2021/04/08 12:53:30;;;;;;;3.22;1.23;;;5.90;99.90;;;;;;12366350;28;20144;-42
2021/04/08 12:59:33;;;;;;;6.80;1.60;;;6.00;99.90;;;;;;12365334;28;20116;-43
2021/04/08 13:05:36;;;;;;;7.03;1.80;;;6.10;99.90;;;;;;12367599;28;20097;-43
2021/04/08 13:11:41;;;;;;;4.80;1.45;;;6.20;99.90;;;;;;12365906;28;20051;-43
2021/04/08 13:17:51;;;;;;;7.07;1.80;;;6.00;99.90;;;;;;12369947;28;20053;-44
2021/04/08 13:23:54;;;;;;;4.05;1.70;;;6.20;99.90;;;;;;12361080;28;20388;-44
2021/04/08 13:29:56;;;;;;;4.82;2.10;;;6.70;99.90;;;;;;12365032;28;20107;-42
2021/04/08 13:35:57;;;;;;;4.75;2.13;;;6.80;99.90;;;;;;12356557;28;20041;-42
2021/04/08 13:41:59;;;;;;;5.22;1.80;;;7.00;99.90;;;;;;12364825;28;20053;-42
2021/04/08 13:48:00;;;;;;;6.80;2.30;;;7.30;99.90;;;;;;12364416;28;20621;-42
2021/04/08 13:54:02;;;;;;;8.15;1.98;;;7.50;99.90;;;;;;12368548;28;20104;-42
2021/04/08 14:00:09;;;;;;;5.20;1.90;;;6.80;99.90;;;;;;12355919;28;20049;-42
2021/04/08 14:06:11;;;;;;;5.68;1.98;;;6.30;99.90;;;;;;12361724;28;20049;-42
2021/04/08 14:12:12;;;;;;;8.77;2.22;;;6.60;99.90;;;;;;12363426;28;21994;-42
2021/04/08 14:18:13;;;;;;;6.63;2.70;;;6.60;99.90;;;;;;12358542;28;20510;-43
2021/04/08 14:24:16;;;;;;;4.97;2.47;;;6.20;99.90;;;;;;12357636;28;20054;-42
2021/04/08 14:30:21;;;;;;;8.27;2.90;;;6.60;99.90;;;;;;12364666;28;20100;-42
2021/04/08 14:36:22;;;;;;;5.43;3.03;;;6.50;99.90;;;;;;12362360;28;20137;-43
2021/04/08 14:42:23;;;;;;;5.13;3.40;;;6.20;99.90;;;;;;12363752;28;20053;-42
2021/04/08 14:48:25;;;;;;;7.35;3.47;;;6.30;99.90;;;;;;12362896;28;20116;-43
2021/04/08 14:54:26;;;;;;;7.60;3.75;;;6.70;99.90;;;;;;12360646;28;20298;-42
2021/04/08 15:00:28;;;;;;;7.88;3.47;;;6.80;99.90;;;;;;12361841;28;20050;-42
2021/04/08 15:06:29;;;;;;;7.53;3.97;;;7.10;99.90;;;;;;12370448;28;20450;-42
2021/04/08 15:12:31;;;;;;;5.68;4.22;;;7.00;99.90;;;;;;12364176;28;20046;-43
2021/04/08 15:18:33;;;;;;;6.95;4.22;;;6.90;99.90;;;;;;12365205;28;20050;-42
2021/04/08 15:24:35;;;;;;;7.63;4.50;;;6.90;99.90;;;;;;12354686;28;20050;-42
2021/04/08 15:30:37;;;;;;;7.40;4.43;;;6.60;99.90;;;;;;12364508;28;20368;-42
2021/04/08 15:36:38;;;;;;;7.07;4.38;;;6.40;99.90;;;;;;12355315;28;20058;-43
2021/04/08 15:42:39;;;;;;;10.00;4.72;;;6.60;99.90;;;;;;12358202;28;20051;-43
2021/04/08 15:48:41;;;;;;;8.35;4.53;;;6.60;99.90;;;;;;12358836;28;20042;-42
2021/04/08 15:54:42;;;;;;;9.43;4.35;;;6.40;99.90;;;;;;12358051;28;20050;-43
2021/04/08 16:00:43;;;;;;;6.63;4.30;;;6.30;99.90;;;;;;12353801;28;20450;-44
2021/04/08 16:06:45;;;;;;;7.03;4.50;;;6.10;99.90;;;;;;12351972;28;20113;-42
2021/04/08 16:12:47;;;;;;;11.63;4.70;;;6.00;99.90;;;;;;12357401;28;20055;-42
2021/04/08 16:18:50;;;;;;;7.70;4.80;;;6.00;99.90;;;;;;12353651;28;20085;-42
2021/04/08 16:24:52;;;;;;;7.60;5.40;;;6.00;99.90;;;;;;12354573;28;20516;-43
2021/04/08 16:30:54;;;;;;;8.05;5.53;;;6.30;99.90;;;;;;12352557;28;20051;-42
2021/04/08 16:36:58;;;;;;;10.48;5.97;;;6.30;99.90;;;;;;12365797;28;20124;-45
2021/04/08 16:42:59;;;;;;;10.55;7.45;;;6.60;99.90;;;;;;12362855;28;20100;-44
2021/04/08 16:49:01;;;;;;;8.80;5.72;;;6.80;99.90;;;;;;12368283;28;20057;-42
2021/04/08 16:55:04;;;;;;;11.18;6.40;;;6.90;99.90;;;;;;12364447;28;20055;-44
2021/04/08 17:01:06;;;;;;;12.52;6.45;;;6.90;99.90;;;;;;12363442;28;20563;-43
2021/04/08 17:07:07;;;;;;;9.48;6.78;;;6.40;99.90;;;;;;12372135;28;20073;-43
2021/04/08 17:13:09;;;;;;;9.70;6.75;;;6.30;99.90;;;;;;12368211;28;20129;-42
2021/04/08 17:19:10;;;;;;;11.07;6.75;;;5.90;99.90;;;;;;12366483;28;20058;-42
2021/04/08 17:25:13;;;;;;;9.15;6.80;;;5.70;99.90;;;;;;12356645;28;20438;-42
2021/04/08 17:31:15;;;;;;;9.27;7.00;;;5.80;99.90;;;;;;12365204;28;20038;-42
2021/04/08 17:37:16;;;;;;;9.30;6.55;;;5.40;99.90;;;;;;12364324;28;20388;-42
2021/04/08 17:43:18;;;;;;;13.55;7.53;;;5.20;99.90;;;;;;12364239;28;20046;-43
2021/04/08 17:49:19;;;;;;;9.85;6.82;;;5.00;99.90;;;;;;12363845;28;20813;-42
2021/04/08 17:55:21;;;;;;;10.32;7.13;;;4.80;99.90;;;;;;12362925;28;20146;-44
2021/04/08 18:01:24;;;;;;;11.15;6.68;;;4.70;99.90;;;;;;12361607;28;20658;-42
2021/04/08 18:07:25;;;;;;;9.63;6.55;;;4.60;99.90;;;;;;12351960;28;20058;-43
2021/04/08 18:13:26;;;;;;;10.10;6.55;;;4.50;99.90;;;;;;12364123;28;20050;-42
2021/04/08 18:19:28;;;;;;;12.43;6.55;;;4.40;99.90;;;;;;12364848;28;20104;-42
2021/04/08 18:25:29;;;;;;;10.73;6.50;;;4.30;99.90;;;;;;12365236;28;20462;-43
2021/04/08 18:31:32;;;;;;;10.52;6.63;;;4.20;99.90;;;;;;12364011;28;20141;-43
2021/04/08 18:37:34;;;;;;;12.73;7.03;;;4.20;99.90;;;;;;12356905;28;20061;-44
2021/04/08 18:43:36;;;;;;;8.88;6.00;;;4.20;99.90;;;;;;12363291;28;20137;-43
2021/04/08 18:49:38;;;;;;;9.02;6.28;;;4.10;99.90;;;;;;12362354;28;20116;-43
2021/04/08 18:55:41;;;;;;;10.07;5.93;;;4.00;99.90;;;;;;12358478;28;20078;-42
2021/04/08 19:01:42;;;;;;;9.80;6.28;;;4.00;99.90;;;;;;12356809;28;20054;-44
2021/04/08 19:07:43;;;;;;;9.75;6.57;;;4.10;99.90;;;;;;12362596;28;20129;-43
2021/04/08 19:13:45;;;;;;;12.57;6.70;;;4.00;99.90;;;;;;12364276;28;20049;-42
2021/04/08 19:19:46;;;;;;;12.88;7.20;;;3.90;99.90;;;;;;12359989;28;20065;-42
2021/04/08 19:25:48;;;;;;;10.18;6.28;;;3.90;99.90;;;;;;12356305;28;20155;-43
2021/04/08 19:31:49;;;;;;;10.63;6.60;;;3.80;99.90;;;;;;12368621;28;20045;-42
2021/04/08 19:37:51;;;;;;;9.20;6.43;;;3.80;99.90;;;;;;12365034;28;20088;-42
2021/04/08 19:43:53;;;;;;;12.43;6.57;;;3.80;99.90;;;;;;12360558;28;20141;-42
2021/04/08 19:49:54;;;;;;;13.20;6.15;;;3.80;99.90;;;;;;12360066;28;20050;-43
2021/04/08 19:55:55;;;;;;;11.13;6.63;;;3.70;99.90;;;;;;12361697;28;20062;-43
2021/04/08 20:01:57;;;;;;;16.98;7.00;;;3.70;99.90;;;;;;12364415;28;20062;-42
2021/04/08 20:07:58;;;;;;;15.93;7.07;;;3.70;99.90;;;;;;12365527;28;20474;-43
2021/04/08 20:14:00;;;;;;;19.33;7.32;;;3.60;99.90;;;;;;12372665;28;20053;-43
2021/04/08 20:20:03;;;;;;;13.13;7.50;;;3.60;99.90;;;;;;12368953;28;20483;-43
2021/04/08 20:26:05;;;;;;;12.63;8.07;;;3.60;99.90;;;;;;12373448;28;20051;-42
2021/04/08 20:32:06;;;;;;;11.90;7.30;;;3.60;99.90;;;;;;12371300;28;20082;-42
2021/04/08 20:38:08;;;;;;;12.32;7.13;;;3.50;99.90;;;;;;12373652;28;20082;-42
2021/04/08 20:44:09;;;;;;;12.82;7.40;;;3.50;99.90;;;;;;12370422;28;20125;-41
2021/04/08 20:50:11;;;;;;;14.65;8.27;;;3.40;99.90;;;;;;12372872;28;20051;-42
2021/04/08 20:56:22;;;;;;;11.73;8.30;;;3.30;99.90;;;;;;12363154;28;20058;-42
2021/04/08 21:02:23;;;;;;;14.50;8.82;;;3.10;99.90;;;;;;12366879;28;20466;-43
2021/04/08 21:08:25;;;;;;;14.32;9.13;;;3.10;99.90;;;;;;12368329;28;20069;-41
2021/04/08 21:14:26;;;;;;;14.23;9.25;;;2.90;99.90;;;;;;12371804;28;20096;-42
2021/04/08 21:20:28;;;;;;;15.88;9.98;;;2.70;99.90;;;;;;12363039;28;20049;-42
2021/04/08 21:26:29;;;;;;;13.68;9.95;;;2.70;99.90;;;;;;12373739;28;20467;-42
2021/04/08 21:32:31;;;;;;;14.70;9.60;;;2.70;99.90;;;;;;12367866;28;20048;-41
2021/04/08 21:38:32;;;;;;;13.65;9.20;;;2.80;99.90;;;;;;12356880;28;20150;-42
2021/04/08 21:44:34;;;;;;;16.48;9.60;;;2.70;99.90;;;;;;12366327;28;20081;-43
2021/04/08 21:50:36;;;;;;;14.90;9.23;;;2.80;99.90;;;;;;12366924;28;20414;-41
2021/04/08 21:56:37;;;;;;;15.88;9.00;;;2.80;99.90;;;;;;12364849;28;20049;-41
2021/04/08 22:02:39;;;;;;;15.52;9.07;;;2.80;99.90;;;;;;12371203;28;20052;-42
2021/04/08 22:08:40;;;;;;;13.55;9.18;;;2.70;99.90;;;;;;12369333;28;20051;-42
2021/04/08 22:14:41;;;;;;;14.48;8.57;;;2.70;99.90;;;;;;12367022;28;20461;-41
2021/04/08 22:20:43;;;;;;;11.75;7.57;;;2.70;99.90;;;;;;12371433;28;20095;-41
2021/04/08 22:26:44;;;;;;;14.55;8.20;;;2.60;99.90;;;;;;12363039;28;20070;-41
2021/04/08 22:32:45;;;;;;;18.50;9.70;;;2.70;99.90;;;;;;12363280;28;20053;-41
2021/04/08 22:38:49;;;;;;;11.30;5.95;;;2.70;99.90;;;;;;12363654;28;20169;-43
2021/04/08 22:44:50;;;;;;;8.55;5.53;;;2.70;99.90;;;;;;12367325;28;21174;-42
2021/04/08 22:50:51;;;;;;;10.82;5.70;;;2.70;99.90;;;;;;12361084;28;20046;-41
2021/04/08 22:56:54;;;;;;;10.15;5.57;;;2.40;99.90;;;;;;12363422;28;20061;-43
2021/04/08 23:02:57;;;;;;;9.80;5.50;;;2.40;99.90;;;;;;12362544;28;20054;-42
2021/04/08 23:09:10;;;;;;;11.43;5.88;;;2.50;99.90;;;;;;12361847;28;21018;-42
2021/04/08 23:15:12;;;;;;;10.75;5.13;;;2.60;99.90;;;;;;12358124;28;20103;-42
2021/04/08 23:21:13;;;;;;;9.55;5.20;;;2.70;99.90;;;;;;12366209;28;20093;-42
2021/04/08 23:27:14;;;;;;;9.68;5.40;;;2.70;99.90;;;;;;12356834;28;20050;-42
2021/04/08 23:33:16;;;;;;;13.25;5.47;;;2.70;99.90;;;;;;12366928;28;20050;-42
2021/04/08 23:39:17;;;;;;;14.07;5.40;;;2.70;99.90;;;;;;12362413;28;20085;-43
2021/04/08 23:45:21;;;;;;;15.82;7.05;;;2.60;99.90;;;;;;12376209;28;20050;-43
2021/04/08 23:51:23;;;;;;;12.37;5.97;;;2.50;99.90;;;;;;12374931;28;20199;-42
2021/04/08 23:57:24;;;;;;;13.98;6.53;;;2.50;99.90;;;;;;12373232;28;20540;-43
